Time;durP1;ratioP1;P1;durP2;ratioP2;P2;SDS_P1;SDS_P2;PMS_P1;PMS_P2;Temp;Humidity;BMP_temperature;BMP_pressure;BME280_temperature;BME280_humidity;BME280_pressure;Samples;Min_cycle;Max_cycle;Signal;HPM_P1;HPM_P2
2022/07/01 00:17:58;;;;;;;14.50;10.18;;;;;;;14.16;97.93;100829.25;5042864;28;20037;-81
2022/07/01 00:24:31;;;;;;;14.30;10.20;;;;;;;14.18;98.28;100840.38;5060019;28;20105;-81
2022/07/01 00:27:31;;;;;;;14.60;10.85;;;;;;;14.11;98.17;100828.94;5013734;28;20060;-80
2022/07/01 00:30:05;;;;;;;14.32;11.00;;;;;;;14.09;98.03;100835.38;5081030;28;20140;-80
2022/07/01 00:32:33;;;;;;;17.23;10.45;;;;;;;14.22;98.23;100846.13;5080754;28;20052;-81
2022/07/01 00:35:53;;;;;;;16.52;10.35;;;;;;;14.23;98.56;100856.47;5073912;28;20443;-79
2022/07/01 00:38:26;;;;;;;15.55;11.05;;;;;;;14.27;98.18;100855.13;5023299;28;20049;-82
2022/07/01 00:41:50;;;;;;;14.88;10.32;;;;;;;14.34;97.75;100859.72;5078663;28;20051;-82
2022/07/01 00:44:36;;;;;;;16.15;10.73;;;;;;;14.31;97.59;100855.63;5046317;28;20080;-82
2022/07/01 01:07:37;;;;;;;18.77;11.57;;;;;;;14.38;97.57;100896.03;4828769;29;20123;-84
2022/07/01 01:34:00;;;;;;;21.27;13.35;;;;;;;14.17;98.18;100923.00;4960554;29;20057;-77
2022/07/01 01:36:26;;;;;;;18.50;11.38;;;;;;;14.15;98.16;100930.25;5046929;28;20052;-79
2022/07/01 01:38:54;;;;;;;21.67;12.30;;;;;;;14.20;97.98;100927.88;5058911;28;20108;-79
2022/07/01 01:41:21;;;;;;;19.58;12.50;;;;;;;14.19;98.01;100923.63;5056628;28;20492;-80
2022/07/01 01:43:48;;;;;;;19.00;12.25;;;;;;;14.22;97.92;100928.53;5056882;28;20548;-77
2022/07/01 01:46:14;;;;;;;15.88;11.40;;;;;;;14.25;97.85;100925.56;5055963;28;20194;-78
2022/07/01 01:48:41;;;;;;;21.23;11.80;;;;;;;14.27;97.73;100934.09;5057898;28;20084;-80
2022/07/01 01:51:09;;;;;;;19.63;12.02;;;;;;;14.27;97.86;100917.50;5060041;28;20433;-79
2022/07/01 01:53:35;;;;;;;17.50;11.82;;;;;;;14.24;97.96;100921.28;5060587;28;20396;-80
2022/07/01 01:56:02;;;;;;;19.33;11.65;;;;;;;14.23;97.58;100926.72;5060197;28;20049;-79
2022/07/01 01:58:29;;;;;;;18.85;11.00;;;;;;;14.31;97.40;100931.13;5057757;28;20048;-80
2022/07/01 02:00:55;;;;;;;16.42;10.63;;;;;;;14.29;97.24;100921.59;5058092;28;20080;-78
2022/07/01 02:03:22;;;;;;;19.55;10.15;;;;;;;14.24;97.16;100928.38;5057234;28;20045;-79
2022/07/01 02:05:50;;;;;;;18.25;9.43;;;;;;;14.15;97.35;100924.16;5055064;28;20128;-79
2022/07/01 02:08:18;;;;;;;13.55;8.48;;;;;;;14.16;97.52;100937.16;5055276;28;20417;-78
2022/07/01 02:10:44;;;;;;;14.77;8.68;;;;;;;14.14;98.07;100954.09;5060601;28;20076;-78
2022/07/01 02:13:11;;;;;;;14.95;7.88;;;;;;;14.15;98.31;100940.75;5060638;28;20049;-77
2022/07/01 02:15:39;;;;;;;13.43;7.22;;;;;;;14.14;98.42;100939.13;5060693;28;20550;-78
2022/07/01 02:18:06;;;;;;;18.92;7.82;;;;;;;14.17;97.58;100928.25;5061118;28;20106;-79
2022/07/01 02:20:33;;;;;;;14.68;7.20;;;;;;;14.07;97.29;100924.19;5060759;28;20045;-77
2022/07/01 02:23:00;;;;;;;11.93;7.43;;;;;;;14.04;97.06;100924.53;5062939;28;20056;-77
2022/07/01 02:25:28;;;;;;;19.05;8.23;;;;;;;14.04;97.53;100927.97;5060901;28;20045;-79
2022/07/01 02:27:55;;;;;;;13.68;7.25;;;;;;;14.03;97.40;100936.03;5060893;28;20061;-79
2022/07/01 02:30:21;;;;;;;15.63;7.15;;;;;;;14.05;97.58;100940.16;5065312;28;20077;-79
2022/07/01 02:32:48;;;;;;;11.32;7.00;;;;;;;14.09;97.86;100943.25;5070464;28;20052;-79
2022/07/01 02:35:14;;;;;;;12.55;6.93;;;;;;;14.07;97.80;100953.97;5069648;28;20116;-80
2022/07/01 02:37:41;;;;;;;12.63;7.38;;;;;;;14.06;97.99;100962.84;5068837;28;20055;-78
2022/07/01 02:40:10;;;;;;;12.75;7.43;;;;;;;14.06;98.04;100965.47;5059257;28;20121;-77
2022/07/01 02:42:38;;;;;;;9.75;6.18;;;;;;;14.07;97.75;100964.47;5058704;28;20045;-78
2022/07/01 02:45:06;;;;;;;11.32;7.07;;;;;;;14.07;98.16;100961.03;5058572;28;20053;-79
2022/07/01 02:47:33;;;;;;;10.13;6.10;;;;;;;14.09;97.49;100977.47;5060574;28;20053;-79
2022/07/01 02:50:01;;;;;;;15.45;6.75;;;;;;;14.08;97.35;100978.47;5061142;28;20041;-79
2022/07/01 02:52:28;;;;;;;13.32;6.03;;;;;;;14.12;97.11;100987.66;5060248;28;20083;-80
2022/07/01 02:54:55;;;;;;;13.70;6.93;;;;;;;14.03;96.90;100988.66;5061503;28;20100;-79
2022/07/01 02:57:22;;;;;;;12.48;7.00;;;;;;;14.00;96.89;100995.09;5064019;28;20083;-80
2022/07/01 02:59:50;;;;;;;11.38;6.63;;;;;;;14.04;97.25;100993.75;5063724;28;20084;-80
2022/07/01 03:02:18;;;;;;;12.75;6.90;;;;;;;14.04;97.45;100983.25;5063734;28;20098;-79
2022/07/01 03:04:45;;;;;;;14.98;7.53;;;;;;;14.03;97.57;100989.50;5062928;28;20525;-77
2022/07/01 03:07:12;;;;;;;18.95;7.03;;;;;;;13.90;97.52;100997.09;5063397;28;20077;-79
2022/07/01 03:09:39;;;;;;;24.05;8.07;;;;;;;13.88;97.84;100991.16;5063384;28;20060;-81
2022/07/01 03:12:24;;;;;;;12.48;6.65;;;;;;;13.86;97.78;100993.97;5062308;28;20442;-78
2022/07/01 03:14:53;;;;;;;10.93;7.10;;;;;;;13.89;98.15;100998.06;5060563;28;20103;-79
2022/07/01 03:17:20;;;;;;;12.73;6.30;;;;;;;13.92;98.19;100992.47;5060994;28;20136;-79
2022/07/01 03:19:47;;;;;;;13.02;5.72;;;;;;;13.98;98.00;101004.13;5060369;28;20509;-78
2022/07/01 03:22:14;;;;;;;14.00;5.93;;;;;;;14.01;98.53;100996.72;5061796;28;20049;-79
2022/07/01 03:24:41;;;;;;;10.77;5.60;;;;;;;14.01;98.49;100988.00;5063702;28;20087;-80
2022/07/01 03:27:08;;;;;;;9.88;5.65;;;;;;;13.96;98.26;100993.78;5064220;28;20160;-81
2022/07/01 03:29:35;;;;;;;11.05;5.78;;;;;;;13.90;98.10;100983.94;5063421;28;20053;-77
2022/07/01 03:32:03;;;;;;;9.85;5.50;;;;;;;13.95;97.98;100992.16;5064393;28;20075;-80
2022/07/01 03:34:30;;;;;;;11.52;5.50;;;;;;;13.81;97.65;100996.28;5063550;28;20128;-80
2022/07/01 03:36:56;;;;;;;10.52;5.75;;;;;;;13.74;97.61;100999.75;5063951;28;20076;-79
2022/07/01 03:39:23;;;;;;;14.73;5.55;;;;;;;13.78;97.95;101011.56;5063130;28;20517;-80
2022/07/01 03:41:50;;;;;;;11.48;5.65;;;;;;;13.70;97.91;101009.00;5072618;28;20060;-77
2022/07/01 03:44:17;;;;;;;12.20;6.10;;;;;;;13.78;97.70;101007.13;5070641;28;20049;-81
2022/07/01 03:46:43;;;;;;;12.82;5.22;;;;;;;13.81;97.68;101012.06;5066568;28;20080;-79
2022/07/01 03:49:11;;;;;;;12.25;6.60;;;;;;;13.83;97.71;101004.81;5073664;28;20048;-79
2022/07/01 03:51:38;;;;;;;15.48;6.07;;;;;;;13.80;97.46;101005.16;5070703;28;20512;-79
2022/07/01 03:56:49;;;;;;;11.75;5.40;;;;;;;13.83;97.44;100994.31;5063793;28;20115;-81
2022/07/01 03:59:16;;;;;;;11.35;6.03;;;;;;;13.79;97.71;100992.19;5063136;28;20501;-80
2022/07/01 04:01:42;;;;;;;10.18;4.97;;;;;;;13.81;97.68;100984.94;5062940;28;20105;-79
2022/07/01 04:04:10;;;;;;;9.20;5.10;;;;;;;13.83;97.72;100980.34;5061706;28;20081;-78
2022/07/01 04:06:38;;;;;;;11.68;5.15;;;;;;;13.86;97.61;100982.63;5063527;28;20084;-79
2022/07/01 04:09:04;;;;;;;9.25;4.63;;;;;;;13.92;98.14;100997.75;5065063;28;20076;-80
2022/07/01 04:11:32;;;;;;;15.00;5.18;;;;;;;13.94;97.98;100993.94;5068903;28;20060;-77
2022/07/01 04:13:59;;;;;;;10.50;5.10;;;;;;;13.93;98.06;100999.38;5066646;28;20155;-79
2022/07/01 04:16:27;;;;;;;8.88;5.00;;;;;;;13.97;98.11;101000.69;5066010;28;20087;-79
2022/07/01 04:18:54;;;;;;;12.00;4.95;;;;;;;13.98;98.10;101002.34;5063626;28;20049;-80
2022/07/01 04:24:07;;;;;;;9.68;5.38;;;;;;;13.97;97.90;101005.94;5065186;28;20059;-80
2022/07/01 04:26:34;;;;;;;11.95;5.05;;;;;;;13.98;97.79;101012.03;5065416;28;20397;-79
2022/07/01 04:29:00;;;;;;;8.07;5.22;;;;;;;14.03;97.81;101007.91;5062872;28;20079;-79
2022/07/01 04:31:27;;;;;;;8.45;4.97;;;;;;;14.08;97.56;101013.50;5057691;28;20041;-79
2022/07/01 04:33:54;;;;;;;11.70;5.45;;;;;;;14.08;97.62;100995.06;5057207;28;20095;-79
2022/07/01 04:36:22;;;;;;;10.15;5.13;;;;;;;14.12;97.59;100985.84;5058335;28;20509;-81
2022/07/01 04:38:49;;;;;;;11.50;5.22;;;;;;;14.07;97.18;100984.72;5059324;28;20088;-78
2022/07/01 04:44:00;;;;;;;11.20;5.03;;;;;;;14.04;96.33;100985.88;5061352;28;20083;-77
2022/07/01 04:46:26;;;;;;;9.73;4.72;;;;;;;14.13;96.49;100992.75;5059411;28;20114;-79
2022/07/01 04:48:54;;;;;;;9.52;4.53;;;;;;;14.07;96.47;101001.31;5058346;28;20060;-78
2022/07/01 04:51:22;;;;;;;10.57;5.25;;;;;;;14.06;95.74;100983.88;5058645;28;20134;-79
2022/07/01 04:53:49;;;;;;;9.50;4.65;;;;;;;14.09;95.48;100983.56;5057302;28;20048;-79
2022/07/01 04:56:16;;;;;;;8.07;4.90;;;;;;;14.10;95.24;100984.38;5057241;28;20064;-79
2022/07/01 04:58:43;;;;;;;9.88;4.80;;;;;;;14.07;95.74;100980.28;5056941;28;20068;-80
2022/07/01 05:01:09;;;;;;;8.65;4.80;;;;;;;14.12;94.84;100980.59;5056668;28;20106;-79
2022/07/01 05:03:36;;;;;;;10.00;5.07;;;;;;;14.12;95.22;100980.59;5058465;28;20517;-78
2022/07/01 05:06:03;;;;;;;11.55;4.80;;;;;;;14.14;95.67;100972.53;5059971;28;20044;-80
2022/07/01 05:08:31;;;;;;;10.07;4.80;;;;;;;14.08;95.17;100963.50;5059508;28;20049;-79
2022/07/01 05:10:58;;;;;;;7.70;4.75;;;;;;;14.13;95.57;100965.63;5056641;28;20486;-79
2022/07/01 05:13:34;;;;;;;8.38;4.47;;;;;;;14.16;94.95;100963.47;5057156;28;20084;-79
2022/07/01 05:16:00;;;;;;;8.18;4.50;;;;;;;14.17;94.43;100962.47;5057153;28;20589;-77
2022/07/01 05:23:59;;;;;;;17.38;5.60;;;;;;;14.50;96.22;100975.50;5059231;28;20137;-80
2022/07/01 05:26:26;;;;;;;12.75;5.45;;;;;;;14.62;95.80;100982.00;5057314;28;20088;-79
2022/07/01 05:28:54;;;;;;;8.43;4.78;;;;;;;14.78;95.24;100981.06;5056867;28;20045;-81
2022/07/01 05:31:21;;;;;;;15.55;5.57;;;;;;;14.94;93.47;100986.25;5059982;28;20071;-78
2022/07/01 05:33:48;;;;;;;8.15;4.93;;;;;;;15.14;91.61;100986.56;5062070;28;20057;-79
2022/07/01 05:36:15;;;;;;;12.70;5.28;;;;;;;15.31;91.64;101008.34;5062599;28;20056;-81
2022/07/01 05:38:42;;;;;;;12.00;4.85;;;;;;;15.36;90.52;101014.72;5061138;28;20060;-80
2022/07/01 05:41:11;;;;;;;12.38;5.38;;;;;;;15.49;91.13;101009.69;5060854;28;20073;-80
2022/07/01 05:43:37;;;;;;;12.65;5.50;;;;;;;15.48;89.16;101008.03;5059523;28;20085;-81
2022/07/01 05:46:04;;;;;;;10.95;4.50;;;;;;;15.30;88.81;101004.06;5061585;28;20100;-80
2022/07/01 05:48:31;;;;;;;7.43;4.43;;;;;;;15.13;88.74;100993.66;5061311;28;20085;-80
2022/07/01 05:50:57;;;;;;;11.00;4.80;;;;;;;15.19;88.88;101007.94;5060706;28;20048;-81
2022/07/01 05:53:24;;;;;;;12.40;4.63;;;;;;;15.24;88.79;101009.06;5061240;28;20072;-80
2022/07/01 05:55:51;;;;;;;10.25;4.75;;;;;;;15.20;88.75;101014.84;5061400;28;20073;-79
2022/07/01 05:58:19;;;;;;;7.35;4.82;;;;;;;15.22;88.65;101010.22;5062084;28;20059;-81
2022/07/01 06:00:46;;;;;;;12.40;4.72;;;;;;;15.51;88.29;101012.97;5061195;28;20110;-80
2022/07/01 06:03:14;;;;;;;7.75;4.75;;;;;;;15.68;87.66;101011.00;5073331;28;20064;-80
2022/07/01 06:05:41;;;;;;;14.13;4.68;;;;;;;15.89;86.03;101005.03;5075150;28;20029;-81
2022/07/01 06:08:08;;;;;;;13.48;4.50;;;;;;;16.00;85.52;101023.06;5075387;28;20053;-81
2022/07/01 06:10:35;;;;;;;36.05;6.40;;;;;;;15.93;85.05;101011.59;5064845;28;20053;-81
2022/07/01 06:13:03;;;;;;;10.13;4.78;;;;;;;16.30;84.13;101001.91;5059361;28;20088;-80
2022/07/01 06:15:31;;;;;;;10.93;4.57;;;;;;;16.43;83.14;101023.19;5059455;28;20109;-79
2022/07/01 06:17:58;;;;;;;10.40;4.55;;;;;;;16.34;83.25;101025.13;5059723;28;20071;-78
2022/07/01 06:20:25;;;;;;;10.35;4.20;;;;;;;16.57;82.95;101036.38;5054066;28;20073;-78
2022/07/01 06:22:51;;;;;;;7.80;4.00;;;;;;;16.89;82.42;101042.25;5054993;28;20084;-79
2022/07/01 06:25:18;;;;;;;5.93;3.80;;;;;;;17.43;79.39;101063.75;5054440;28;20131;-79
2022/07/01 06:27:45;;;;;;;7.50;3.60;;;;;;;17.59;78.95;101052.88;5055042;28;20548;-82
2022/07/01 06:30:13;;;;;;;10.02;3.90;;;;;;;17.40;78.29;101036.84;5055888;28;20587;-80
2022/07/01 06:32:41;;;;;;;8.50;4.30;;;;;;;17.19;78.55;101040.31;5058219;28;20079;-80
2022/07/01 06:35:09;;;;;;;7.15;4.20;;;;;;;17.29;77.88;101043.47;5055768;28;20049;-77
2022/07/01 06:37:35;;;;;;;5.25;4.00;;;;;;;17.02;79.78;101055.59;5054856;28;20088;-79
2022/07/01 06:40:03;;;;;;;9.23;4.60;;;;;;;16.97;78.92;101057.19;5055567;28;20049;-79
2022/07/01 06:42:29;;;;;;;8.70;4.40;;;;;;;16.91;79.70;101059.56;5055288;28;20132;-79
2022/07/01 06:44:56;;;;;;;9.27;4.15;;;;;;;17.07;79.90;101062.97;5054901;28;20581;-79
2022/07/01 06:47:22;;;;;;;10.45;4.43;;;;;;;17.07;79.60;101071.72;5055417;28;20132;-80
2022/07/01 06:49:50;;;;;;;7.68;4.70;;;;;;;17.25;79.23;101081.88;5056052;28;20088;-79
2022/07/01 06:52:17;;;;;;;9.52;4.55;;;;;;;17.24;78.56;101080.22;5054715;28;20496;-80
2022/07/01 06:54:44;;;;;;;10.57;4.50;;;;;;;17.02;79.65;101073.28;5058585;28;20080;-78
2022/07/01 06:57:11;;;;;;;10.60;4.63;;;;;;;16.62;80.67;101069.34;5061348;28;20049;-79
2022/07/01 06:59:37;;;;;;;7.57;4.28;;;;;;;16.94;81.56;101084.00;5058509;28;20060;-80
2022/07/01 07:02:07;;;;;;;6.82;4.95;;;;;;;17.07;80.44;101078.81;5058779;28;20140;-80
2022/07/01 07:04:33;;;;;;;12.73;5.60;;;;;;;16.71;79.93;101073.56;5054755;28;20049;-79
2022/07/01 07:07:01;;;;;;;9.68;6.07;;;;;;;16.64;81.35;101070.81;5057269;28;20496;-79
2022/07/01 07:09:28;;;;;;;10.13;5.43;;;;;;;16.58;80.57;101063.59;5057109;28;20099;-80
2022/07/01 07:11:55;;;;;;;12.27;5.90;;;;;;;16.51;81.05;101062.72;5057132;28;20049;-80
2022/07/01 07:27:29;;;;;;;8.57;5.75;;;;;;;16.49;81.11;101091.16;5074161;28;20040;-81
2022/07/01 07:30:43;;;;;;;11.65;5.68;;;;;;;16.66;81.30;101086.50;5085061;28;20090;-82
2022/07/01 07:37:34;;;;;;;;;;;;;;;;;;;;;
2022/07/01 07:43:44;;;;;;;8.98;6.60;;;;;;;17.06;78.80;101098.34;5083268;28;20497;-81
2022/07/01 07:59:42;;;;;;;8.93;5.32;;;;;;;20.00;67.45;101132.13;4975291;22;20110;-76
2022/07/01 08:02:08;;;;;;;10.05;5.55;;;;;;;19.99;65.66;101107.41;5076136;28;20040;-77
2022/07/01 08:04:35;;;;;;;7.47;4.97;;;;;;;20.81;64.84;101111.28;5077514;28;20053;-77
2022/07/01 08:07:02;;;;;;;11.13;5.25;;;;;;;20.21;65.29;101119.44;5077341;28;20088;-77
2022/07/01 08:09:28;;;;;;;7.63;4.90;;;;;;;19.64;66.50;101127.22;5077380;28;20048;-78
2022/07/01 08:11:55;;;;;;;9.43;5.10;;;;;;;18.83;68.17;101111.31;5077415;28;20091;-78
2022/07/01 08:14:22;;;;;;;11.40;5.07;;;;;;;19.46;67.74;101123.28;5077130;28;20127;-78
2022/07/01 08:16:50;;;;;;;9.85;4.93;;;;;;;21.07;63.95;101119.16;5077270;28;20052;-77
2022/07/01 08:19:16;;;;;;;8.50;4.75;;;;;;;22.32;59.63;101141.34;5079009;28;20051;-77
2022/07/01 08:21:43;;;;;;;8.82;4.45;;;;;;;22.87;56.80;101151.22;5079958;28;20044;-78
2022/07/01 08:24:10;;;;;;;5.68;4.25;;;;;;;23.99;52.91;101155.75;5082668;28;20226;-78
2022/07/01 08:26:36;;;;;;;5.85;4.45;;;;;;;24.15;52.98;101157.72;5083144;28;20071;-78
2022/07/01 08:29:03;;;;;;;8.75;4.32;;;;;;;24.66;51.02;101150.81;5082032;28;20048;-79
2022/07/01 08:31:31;;;;;;;6.57;4.18;;;;;;;23.37;51.94;101136.56;5082020;28;20048;-78
2022/07/01 08:33:59;;;;;;;5.57;4.00;;;;;;;22.07;54.85;101133.41;5082036;28;20044;-78
2022/07/01 08:36:26;;;;;;;8.52;4.45;;;;;;;20.16;60.43;101137.03;5081116;28;20052;-78
2022/07/01 08:38:53;;;;;;;7.03;4.75;;;;;;;19.01;65.37;101126.66;5081129;28;20317;-77
2022/07/01 08:41:19;;;;;;;8.35;4.28;;;;;;;18.70;67.57;101138.59;5080586;28;20055;-78
2022/07/01 08:43:47;;;;;;;8.18;4.18;;;;;;;18.59;66.75;101139.09;5082893;28;20147;-78
2022/07/01 08:46:13;;;;;;;7.68;4.65;;;;;;;18.55;67.52;101143.16;5081520;28;20077;-78
2022/07/01 08:48:43;;;;;;;8.32;4.68;;;;;;;18.61;67.99;101150.38;5082523;28;20142;-78
2022/07/01 08:51:11;;;;;;;5.30;4.55;;;;;;;19.03;66.49;101151.16;5083086;28;20071;-79
2022/07/01 08:53:37;;;;;;;7.28;4.80;;;;;;;19.87;63.52;101154.19;5086526;28;20279;-79
2022/07/01 08:58:50;;;;;;;5.57;3.80;;;;;;;21.34;57.06;101165.06;5086229;28;20083;-78
2022/07/01 09:01:20;;;;;;;7.25;4.93;;;;;;;21.28;56.31;101168.59;5085417;28;20075;-78
2022/07/01 09:03:48;;;;;;;7.18;4.28;;;;;;;21.04;58.88;101158.66;5080521;28;20044;-78
2022/07/01 09:06:17;;;;;;;6.80;5.03;;;;;;;21.12;59.01;101166.41;5078908;28;20052;-78
2022/07/01 09:08:45;;;;;;;11.55;5.00;;;;;;;20.45;60.09;101141.06;5079820;28;20139;-78
2022/07/01 09:11:12;;;;;;;7.47;4.45;;;;;;;20.02;60.40;101138.88;5082571;28;20588;-78
2022/07/01 09:13:39;;;;;;;9.70;4.30;;;;;;;20.20;59.10;101144.38;5082885;28;20148;-79
2022/07/01 09:16:12;;;;;;;7.28;4.10;;;;;;;20.28;57.60;101147.84;5078957;28;20556;-78
2022/07/01 09:18:38;;;;;;;7.30;4.57;;;;;;;20.15;58.15;101156.66;5079769;28;20055;-78
2022/07/01 09:21:09;;;;;;;5.28;4.22;;;;;;;20.09;58.66;101155.63;5079962;28;20496;-79
2022/07/01 09:23:37;;;;;;;6.90;4.50;;;;;;;19.53;59.53;101148.03;5080081;28;20072;-80
2022/07/01 09:26:03;;;;;;;7.05;4.38;;;;;;;20.17;60.42;101155.41;5080217;28;20104;-79
2022/07/01 09:28:30;;;;;;;12.20;4.70;;;;;;;21.10;57.63;101165.81;5080255;28;20048;-77
2022/07/01 09:30:59;;;;;;;10.80;4.80;;;;;;;21.55;55.55;101165.78;5079838;28;20049;-80
2022/07/01 09:33:27;;;;;;;8.95;4.90;;;;;;;21.39;56.23;101165.25;5079871;28;20106;-79
2022/07/01 09:35:54;;;;;;;8.65;4.60;;;;;;;21.46;55.80;101175.84;5082944;28;20060;-79
2022/07/01 09:38:23;;;;;;;8.43;4.72;;;;;;;20.91;56.16;101172.81;5075648;28;20084;-79
2022/07/01 09:40:54;;;;;;;7.70;5.00;;;;;;;21.02;57.81;101171.34;5078452;28;20522;-79
2022/07/01 09:43:23;;;;;;;6.97;4.72;;;;;;;20.69;56.74;101159.00;5078204;28;20113;-78
2022/07/01 09:45:58;;;;;;;9.70;5.00;;;;;;;20.58;58.18;101178.25;5077589;28;20055;-79
2022/07/01 09:48:26;;;;;;;7.07;5.15;;;;;;;20.27;58.45;101170.13;5079101;28;20087;-80
2022/07/01 09:50:53;;;;;;;7.43;4.85;;;;;;;21.41;56.38;101168.50;5078189;28;20468;-79
2022/07/01 09:53:20;;;;;;;5.32;4.78;;;;;;;21.19;55.06;101177.84;5078852;28;20472;-79
2022/07/01 09:55:47;;;;;;;8.98;4.65;;;;;;;20.97;56.71;101161.34;5079251;28;20049;-80
2022/07/01 09:58:15;;;;;;;5.57;4.85;;;;;;;20.95;57.13;101168.72;5077905;28;20106;-80
2022/07/01 10:00:42;;;;;;;9.18;5.35;;;;;;;21.71;55.24;101170.59;5078324;28;20048;-80
2022/07/01 10:03:09;;;;;;;9.70;5.07;;;;;;;22.18;53.39;101180.69;5078937;28;20095;-80
2022/07/01 10:05:44;;;;;;;7.13;5.18;;;;;;;21.63;53.19;101176.16;5078998;28;20076;-81
2022/07/01 10:08:37;;;;;;;8.35;5.18;;;;;;;21.57;55.74;101166.38;5078692;28;20067;-80
2022/07/01 10:11:22;;;;;;;7.68;4.80;;;;;;;21.83;53.46;101166.16;5079005;28;20128;-81
2022/07/01 10:13:50;;;;;;;8.23;4.45;;;;;;;21.63;55.62;101168.19;5079264;28;20087;-81
2022/07/01 10:16:18;;;;;;;7.50;4.57;;;;;;;21.88;54.46;101174.31;5079050;28;20465;-81
2022/07/01 10:18:45;;;;;;;5.85;4.45;;;;;;;21.77;52.02;101172.34;5078865;28;20079;-80
2022/07/01 10:21:27;;;;;;;6.28;4.55;;;;;;;21.08;53.56;101181.16;5078852;28;20048;-82
2022/07/01 10:23:53;;;;;;;9.05;4.88;;;;;;;21.66;56.16;101175.75;5079239;28;20108;-80
2022/07/01 10:26:20;;;;;;;9.02;4.75;;;;;;;22.31;54.74;101185.03;5078570;28;20083;-80
2022/07/01 10:28:47;;;;;;;7.88;4.63;;;;;;;22.34;51.94;101181.13;5079242;28;20083;-81
2022/07/01 10:31:17;;;;;;;7.30;4.95;;;;;;;21.57;52.96;101177.03;5079802;28;20090;-79
2022/07/01 10:33:47;;;;;;;13.48;5.38;;;;;;;21.58;54.14;101184.00;5081453;28;20079;-79
2022/07/01 10:36:24;;;;;;;6.38;5.00;;;;;;;20.65;55.46;101179.06;5082897;28;20079;-82
2022/07/01 10:39:14;;;;;;;7.15;5.30;;;;;;;19.96;58.86;101168.09;5082821;28;20052;-80
2022/07/01 10:41:55;;;;;;;7.22;4.95;;;;;;;19.98;59.74;101161.53;5082561;28;20083;-80
2022/07/01 10:44:24;;;;;;;8.02;4.65;;;;;;;19.77;58.30;101153.81;5082953;28;20048;-80
2022/07/01 10:46:57;;;;;;;7.03;4.60;;;;;;;20.19;57.00;101158.69;5094369;28;20095;-81
2022/07/01 10:49:58;;;;;;;5.32;4.70;;;;;;;20.96;54.95;101174.84;5099463;28;20044;-84
2022/07/01 10:52:25;;;;;;;7.03;5.20;;;;;;;21.50;53.74;101167.22;5099073;28;20056;-81
2022/07/01 10:54:55;;;;;;;8.30;4.78;;;;;;;22.18;53.71;101188.66;5091064;28;20040;-79
2022/07/01 10:57:34;;;;;;;7.20;4.43;;;;;;;21.56;52.39;101170.06;5084251;28;20048;-80
2022/07/01 11:00:33;;;;;;;5.32;4.25;;;;;;;21.42;51.88;101169.31;5082467;28;20086;-82
2022/07/01 11:03:21;;;;;;;4.95;3.90;;;;;;;22.21;52.67;101178.59;5082703;28;20048;-81
2022/07/01 11:05:52;;;;;;;4.80;4.30;;;;;;;22.76;51.10;101177.59;5082506;28;20094;-82
2022/07/01 11:08:19;;;;;;;4.43;3.22;;;;;;;22.71;49.46;101188.09;5082900;28;20072;-79
2022/07/01 11:10:51;;;;;;;4.03;2.85;;;;;;;22.26;47.60;101176.88;5084746;28;20045;-84
2022/07/01 11:13:18;;;;;;;5.40;3.05;;;;;;;21.89;48.15;101180.47;5084504;28;20076;-81
2022/07/01 11:15:47;;;;;;;10.93;3.53;;;;;;;21.79;50.70;101164.97;5083788;28;20064;-79
2022/07/01 11:18:15;;;;;;;8.18;4.55;;;;;;;22.04;50.47;101167.69;5081689;28;20059;-82
2022/07/01 11:20:43;;;;;;;11.45;3.72;;;;;;;22.53;49.84;101174.78;5083333;28;20079;-78
2022/07/01 11:23:10;;;;;;;6.38;3.30;;;;;;;22.21;48.36;101165.28;5081383;28;20084;-79
2022/07/01 11:25:36;;;;;;;8.00;3.70;;;;;;;22.01;47.65;101168.94;5081704;28;20084;-78
2022/07/01 11:28:03;;;;;;;5.15;3.30;;;;;;;22.04;47.29;101160.50;5080946;28;20477;-79
2022/07/01 11:30:32;;;;;;;4.68;3.00;;;;;;;22.31;47.96;101170.91;5080925;28;20083;-80
2022/07/01 11:32:59;;;;;;;10.75;3.33;;;;;;;22.31;47.83;101168.22;5080790;28;20088;-81
2022/07/01 11:40:58;;;;;;;13.75;3.60;;;;;;;22.86;47.14;101160.28;5080706;28;20063;-81
2022/07/01 11:43:28;;;;;;;3.90;2.88;;;;;;;23.19;45.49;101166.00;5080703;28;20408;-80
2022/07/01 11:45:55;;;;;;;5.28;3.78;;;;;;;23.18;44.26;101169.69;5081406;28;20455;-80
2022/07/01 11:48:37;;;;;;;5.85;2.95;;;;;;;23.78;45.18;101172.34;5080492;28;20052;-80
2022/07/01 11:51:12;;;;;;;4.03;3.00;;;;;;;23.44;44.57;101174.69;5081355;28;20045;-82
2022/07/01 11:53:43;;;;;;;6.82;2.63;;;;;;;22.43;45.67;101161.16;5081879;28;20063;-81
2022/07/01 11:56:11;;;;;;;9.32;2.88;;;;;;;22.07;47.39;101162.72;5081926;28;20056;-81
2022/07/01 11:58:42;;;;;;;8.18;2.58;;;;;;;22.60;48.16;101178.19;5081341;28;20083;-81
2022/07/01 12:01:09;;;;;;;8.43;2.20;;;;;;;22.93;47.78;101177.03;5080697;28;20428;-80
2022/07/01 12:03:37;;;;;;;5.43;2.70;;;;;;;22.42;47.01;101168.31;5081142;28;20416;-82
2022/07/01 12:06:04;;;;;;;5.55;2.35;;;;;;;22.31;46.72;101165.56;5080940;28;20049;-80
2022/07/01 12:08:31;;;;;;;6.45;2.28;;;;;;;22.47;46.20;101168.47;5080380;28;20084;-80
2022/07/01 12:11:00;;;;;;;4.57;2.35;;;;;;;22.44;46.48;101171.59;5079226;28;20080;-80
2022/07/01 12:13:28;;;;;;;6.13;2.33;;;;;;;22.54;44.59;101171.09;5080817;28;20064;-83
2022/07/01 12:15:55;;;;;;;5.45;2.22;;;;;;;22.87;43.81;101168.06;5079681;28;20485;-80
2022/07/01 12:18:21;;;;;;;6.43;2.90;;;;;;;22.80;43.76;101173.47;5079470;28;20079;-79
2022/07/01 12:20:50;;;;;;;5.05;2.33;;;;;;;22.45;46.60;101169.75;5080192;28;20079;-79
2022/07/01 12:23:18;;;;;;;5.75;2.38;;;;;;;21.96;47.16;101158.06;5079440;28;20040;-82
2022/07/01 12:25:49;;;;;;;11.10;2.67;;;;;;;21.79;47.00;101159.63;5079521;28;20048;-81
2022/07/01 12:28:31;;;;;;;5.95;2.67;;;;;;;21.67;47.83;101158.72;5079849;28;20492;-82
2022/07/01 12:31:09;;;;;;;3.72;2.22;;;;;;;22.03;48.98;101172.19;5079797;28;20040;-82
2022/07/01 12:33:37;;;;;;;3.55;2.05;;;;;;;22.00;46.94;101169.94;5079352;28;20149;-80
2022/07/01 12:36:05;;;;;;;2.78;1.73;;;;;;;22.32;46.94;101167.19;5078768;28;20080;-80
2022/07/01 12:38:32;;;;;;;3.03;2.17;;;;;;;22.49;46.13;101165.59;5080447;28;20071;-80
2022/07/01 12:41:00;;;;;;;5.00;2.33;;;;;;;22.49;45.95;101165.59;5080090;28;20083;-80
2022/07/01 12:43:29;;;;;;;11.48;2.60;;;;;;;23.25;43.22;101165.09;5079401;28;20675;-81
2022/07/01 12:45:59;;;;;;;7.00;2.17;;;;;;;23.36;43.38;101180.34;5079289;28;20045;-79
2022/07/01 12:48:26;;;;;;;5.78;2.00;;;;;;;23.96;42.65;101169.59;5081041;28;20108;-78
2022/07/01 12:50:54;;;;;;;5.22;2.00;;;;;;;23.66;42.69;101169.66;5083406;28;20119;-80
2022/07/01 12:53:22;;;;;;;4.20;1.95;;;;;;;23.75;43.22;101165.59;5084934;28;20080;-82
2022/07/01 12:55:51;;;;;;;3.95;2.17;;;;;;;23.20;42.65;101156.94;5080803;28;20083;-80
2022/07/01 12:58:20;;;;;;;6.18;2.65;;;;;;;23.36;43.33;101167.00;5081119;28;20052;-83
2022/07/01 13:00:48;;;;;;;7.55;2.58;;;;;;;23.38;43.32;101156.91;5080094;28;20464;-83
2022/07/01 13:03:20;;;;;;;7.43;2.55;;;;;;;22.77;44.52;101152.53;5079167;28;20132;-81
2022/07/01 13:05:47;;;;;;;2.90;1.58;;;;;;;22.72;43.34;101149.72;5079278;28;20548;-80
2022/07/01 13:08:13;;;;;;;3.67;2.00;;;;;;;22.65;43.79;101158.88;5079816;28;20094;-80
2022/07/01 13:10:40;;;;;;;2.95;1.75;;;;;;;22.85;43.29;101151.44;5080055;28;20045;-81
2022/07/01 13:13:07;;;;;;;5.78;2.20;;;;;;;23.05;43.50;101153.88;5079901;28;20047;-79
2022/07/01 13:15:35;;;;;;;6.07;2.30;;;;;;;23.31;41.90;101158.84;5080483;28;20060;-80
2022/07/01 13:18:02;;;;;;;3.65;1.88;;;;;;;23.66;41.25;101166.97;5078308;28;20048;-80
2022/07/01 13:20:30;;;;;;;3.72;1.70;;;;;;;23.22;41.25;101162.88;5079066;28;20049;-82
2022/07/01 13:22:57;;;;;;;3.92;1.33;;;;;;;22.86;42.71;101154.94;5079048;28;20074;-81
2022/07/01 13:25:24;;;;;;;2.55;1.58;;;;;;;22.66;43.45;101168.50;5079397;28;20045;-81
2022/07/01 13:27:51;;;;;;;5.38;2.08;;;;;;;22.77;42.91;101167.72;5078324;28;20098;-80
2022/07/01 13:30:18;;;;;;;10.15;2.42;;;;;;;22.95;43.18;101166.94;5078693;28;20051;-80
2022/07/01 13:32:45;;;;;;;2.90;1.65;;;;;;;23.08;41.11;101164.09;5078653;28;20048;-79